Kedves Pilóták, Oktatók, Növendékek!

Az alábbi menüpontban szeretnénk összefoglalni néhány fontos és hasznos információt, linket, amely segíthet a repülések megtervezésében.

Ha bármilyen javaslatod van a tartalommal kapcsolatban, kérlek Ez az e-mail-cím a szpemrobotok elleni védelem alatt áll. Megtekintéséhez engedélyeznie kell a JavaScript használatát.meg nekünk.

 

Jó leszállást!

Repüléssel kapcsolatos hírek

2019. szeptember 23.

IHO.hu - - Repülés RSS

Felhőkép 

Felhőkép

Széltérkép

Széltérkép

Győr-Pér Repülőtér

Élő webkamera kép

 Nagyobb kép

Győr-Pér Repülőtér

[Source: ADDS]
METAR
LHPR 230515Z 12007KT 9999 OVC036 16/08 Q1012 =
LHPR 230515Z 2306/2315 12009KT 9999 BKN040 BKN100 TEMPO 2306/2309 6000 -RA BKN030 OVC070 PROB30 TEMPO 2312/2315 CAVOK
TAF
LHPR 230515Z 2306/2315 12009KT 9999 BKN040 BKN100 TEMPO 2306/2309 6000 -RA BKN030 OVC070 PROB30 TEMPO 2312/2315 CAVOK =
SR / SS: 04:37 / 16:45 UTC (Napkelte / Napnyugta 2019-09-23)

Kapcsolat

Telephely:     9099 Pér, Repülõtér

Klubhelyiség: 9021 Gyõr, Városház tér 3.

E-mail: info@aeroclub-gyor.hu

Telefon: 06-20-777-9106

Adószám: 19113832-2-08

  
Joomla űrlapépítő by JoomlaShine
JSN Metro template designed by JoomlaShine.com